sensor_id;sensor_type;location;lat;lon;timestamp;pressure;altitude;pressure_sealevel;temperature;humidity
70127;BME280;57491;42.694;23.314;2023-07-09T00:02:14;95538.41;;;20.67;53.14
70127;BME280;57491;42.694;23.314;2023-07-09T00:04:42;95533.13;;;20.67;52.22
70127;BME280;57491;42.694;23.314;2023-07-09T00:07:18;95531.97;;;20.63;52.73
70127;BME280;57491;42.694;23.314;2023-07-09T00:09:47;95534.06;;;20.61;52.85
70127;BME280;57491;42.694;23.314;2023-07-09T00:12:15;95531.75;;;20.53;52.81
70127;BME280;57491;42.694;23.314;2023-07-09T00:14:43;95530.59;;;20.49;52.56
70127;BME280;57491;42.694;23.314;2023-07-09T00:17:10;95526.09;;;20.49;52.61
70127;BME280;57491;42.694;23.314;2023-07-09T00:19:38;95523.94;;;20.35;52.47
70127;BME280;57491;42.694;23.314;2023-07-09T00:22:13;95526.47;;;20.30;53.48
70127;BME280;57491;42.694;23.314;2023-07-09T00:24:43;95525.28;;;20.26;53.32
70127;BME280;57491;42.694;23.314;2023-07-09T00:27:13;95531.13;;;20.28;53.33
70127;BME280;57491;42.694;23.314;2023-07-09T00:29:41;95531.34;;;20.26;53.75
70127;BME280;57491;42.694;23.314;2023-07-09T00:32:12;95532.03;;;20.22;53.42
70127;BME280;57491;42.694;23.314;2023-07-09T00:34:42;95534.09;;;20.20;53.87
70127;BME280;57491;42.694;23.314;2023-07-09T00:37:14;95521.44;;;20.10;53.88
70127;BME280;57491;42.694;23.314;2023-07-09T00:39:42;95518.69;;;20.05;53.96
70127;BME280;57491;42.694;23.314;2023-07-09T00:42:14;95526.84;;;20.03;54.13
70127;BME280;57491;42.694;23.314;2023-07-09T00:44:43;95524.97;;;20.04;54.58
70127;BME280;57491;42.694;23.314;2023-07-09T00:47:38;95518.94;;;20.03;54.21
70127;BME280;57491;42.694;23.314;2023-07-09T00:50:09;95521.56;;;20.03;54.11
70127;BME280;57491;42.694;23.314;2023-07-09T00:52:40;95510.50;;;19.95;54.72
70127;BME280;57491;42.694;23.314;2023-07-09T00:55:15;95498.13;;;19.95;54.77
70127;BME280;57491;42.694;23.314;2023-07-09T00:57:47;95507.44;;;19.98;54.99
70127;BME280;57491;42.694;23.314;2023-07-09T01:00:21;95509.94;;;20.04;55.10
70127;BME280;57491;42.694;23.314;2023-07-09T01:02:50;95511.22;;;20.02;54.61
70127;BME280;57491;42.694;23.314;2023-07-09T01:05:17;95512.72;;;19.98;54.64
70127;BME280;57491;42.694;23.314;2023-07-09T01:07:46;95518.34;;;20.01;53.65
70127;BME280;57491;42.694;23.314;2023-07-09T01:10:14;95510.63;;;20.00;53.76
70127;BME280;57491;42.694;23.314;2023-07-09T01:12:45;95516.16;;;19.98;53.68
70127;BME280;57491;42.694;23.314;2023-07-09T01:15:13;95511.09;;;19.97;53.35
70127;BME280;57491;42.694;23.314;2023-07-09T01:17:41;95507.09;;;19.94;54.11
70127;BME280;57491;42.694;23.314;2023-07-09T01:20:16;95501.44;;;19.91;54.33
70127;BME280;57491;42.694;23.314;2023-07-09T01:22:49;95496.28;;;19.96;53.52
70127;BME280;57491;42.694;23.314;2023-07-09T01:25:17;95500.53;;;19.97;53.21
70127;BME280;57491;42.694;23.314;2023-07-09T01:27:45;95503.84;;;19.92;53.04
70127;BME280;57491;42.694;23.314;2023-07-09T01:30:15;95502.38;;;19.96;53.94
70127;BME280;57491;42.694;23.314;2023-07-09T01:32:43;95501.34;;;19.97;54.88
70127;BME280;57491;42.694;23.314;2023-07-09T01:35:13;95500.31;;;19.98;54.52
70127;BME280;57491;42.694;23.314;2023-07-09T01:37:42;95499.16;;;19.94;53.96
70127;BME280;57491;42.694;23.314;2023-07-09T01:40:13;95498.94;;;19.96;54.38
70127;BME280;57491;42.694;23.314;2023-07-09T01:42:41;95500.31;;;19.98;54.57
70127;BME280;57491;42.694;23.314;2023-07-09T01:45:09;95507.88;;;19.95;54.14
70127;BME280;57491;42.694;23.314;2023-07-09T01:47:37;95498.78;;;19.91;53.82
70127;BME280;57491;42.694;23.314;2023-07-09T01:50:05;95501.53;;;19.84;54.85
70127;BME280;57491;42.694;23.314;2023-07-09T01:52:33;95516.03;;;19.93;55.05
70127;BME280;57491;42.694;23.314;2023-07-09T01:55:01;95522.13;;;19.94;55.24
70127;BME280;57491;42.694;23.314;2023-07-09T01:57:30;95524.28;;;19.85;55.21
70127;BME280;57491;42.694;23.314;2023-07-09T02:00:01;95522.97;;;19.76;55.18
70127;BME280;57491;42.694;23.314;2023-07-09T02:02:30;95526.78;;;19.80;55.73
70127;BME280;57491;42.694;23.314;2023-07-09T02:04:58;95521.94;;;19.77;55.04
70127;BME280;57491;42.694;23.314;2023-07-09T02:07:27;95521.03;;;19.83;54.86
70127;BME280;57491;42.694;23.314;2023-07-09T02:09:54;95514.25;;;19.76;54.65
70127;BME280;57491;42.694;23.314;2023-07-09T02:12:21;95520.69;;;19.80;54.28
70127;BME280;57491;42.694;23.314;2023-07-09T02:14:50;95518.88;;;19.80;54.32
70127;BME280;57491;42.694;23.314;2023-07-09T02:17:17;95527.44;;;19.76;54.84
70127;BME280;57491;42.694;23.314;2023-07-09T02:19:44;95518.28;;;19.78;54.74
70127;BME280;57491;42.694;23.314;2023-07-09T02:22:11;95524.47;;;19.72;55.30
70127;BME280;57491;42.694;23.314;2023-07-09T02:24:38;95525.69;;;19.70;54.67
70127;BME280;57491;42.694;23.314;2023-07-09T02:27:07;95516.50;;;19.60;54.45
70127;BME280;57491;42.694;23.314;2023-07-09T02:29:36;95531.28;;;19.62;55.74
70127;BME280;57491;42.694;23.314;2023-07-09T02:32:06;95522.50;;;19.68;55.35
70127;BME280;57491;42.694;23.314;2023-07-09T02:34:34;95525.44;;;19.59;55.49
70127;BME280;57491;42.694;23.314;2023-07-09T02:37:01;95529.47;;;19.62;55.04
70127;BME280;57491;42.694;23.314;2023-07-09T02:39:28;95529.91;;;19.59;55.47
70127;BME280;57491;42.694;23.314;2023-07-09T02:41:55;95541.56;;;19.51;55.68
70127;BME280;57491;42.694;23.314;2023-07-09T02:44:22;95544.88;;;19.47;56.17
70127;BME280;57491;42.694;23.314;2023-07-09T02:46:50;95544.31;;;19.45;56.13
70127;BME280;57491;42.694;23.314;2023-07-09T02:49:18;95549.13;;;19.48;56.45
70127;BME280;57491;42.694;23.314;2023-07-09T02:51:45;95552.94;;;19.52;56.36
70127;BME280;57491;42.694;23.314;2023-07-09T02:54:12;95554.97;;;19.50;57.16
70127;BME280;57491;42.694;23.314;2023-07-09T02:56:39;95550.44;;;19.39;57.03
70127;BME280;57491;42.694;23.314;2023-07-09T02:59:06;95562.00;;;19.38;57.20
70127;BME280;57491;42.694;23.314;2023-07-09T03:01:33;95553.50;;;19.36;57.35
70127;BME280;57491;42.694;23.314;2023-07-09T03:04:02;95566.78;;;19.47;57.29
70127;BME280;57491;42.694;23.314;2023-07-09T03:06:32;95559.94;;;19.40;57.08
70127;BME280;57491;42.694;23.314;2023-07-09T03:09:00;95573.06;;;19.46;58.10
70127;BME280;57491;42.694;23.314;2023-07-09T03:11:28;95574.84;;;19.52;57.21
70127;BME280;57491;42.694;23.314;2023-07-09T03:13:55;95577.13;;;19.49;56.91
70127;BME280;57491;42.694;23.314;2023-07-09T03:16:22;95569.44;;;19.41;56.86
70127;BME280;57491;42.694;23.314;2023-07-09T03:18:49;95554.75;;;19.33;57.20
70127;BME280;57491;42.694;23.314;2023-07-09T03:21:17;95566.19;;;19.45;57.34
70127;BME280;57491;42.694;23.314;2023-07-09T03:23:45;95575.72;;;19.46;57.72
70127;BME280;57491;42.694;23.314;2023-07-09T03:26:12;95577.78;;;19.44;57.56
70127;BME280;57491;42.694;23.314;2023-07-09T03:28:40;95580.19;;;19.46;57.71
70127;BME280;57491;42.694;23.314;2023-07-09T03:31:07;95577.69;;;19.51;57.76
70127;BME280;57491;42.694;23.314;2023-07-09T03:33:35;95576.06;;;19.50;57.63
70127;BME280;57491;42.694;23.314;2023-07-09T03:36:02;95585.84;;;19.49;58.34
70127;BME280;57491;42.694;23.314;2023-07-09T03:38:30;95586.19;;;19.53;57.07
70127;BME280;57491;42.694;23.314;2023-07-09T03:40:59;95573.88;;;19.47;57.92
70127;BME280;57491;42.694;23.314;2023-07-09T03:43:26;95575.72;;;19.46;57.40
70127;BME280;57491;42.694;23.314;2023-07-09T03:45:53;95566.59;;;19.42;57.43
70127;BME280;57491;42.694;23.314;2023-07-09T03:48:20;95581.59;;;19.48;58.13
70127;BME280;57491;42.694;23.314;2023-07-09T03:50:48;95565.63;;;19.43;57.69
70127;BME280;57491;42.694;23.314;2023-07-09T03:53:16;95576.16;;;19.43;57.28
70127;BME280;57491;42.694;23.314;2023-07-09T03:55:45;95575.50;;;19.48;57.44
70127;BME280;57491;42.694;23.314;2023-07-09T03:58:14;95578.84;;;19.55;56.92
70127;BME280;57491;42.694;23.314;2023-07-09T04:00:41;95581.41;;;19.62;57.76
70127;BME280;57491;42.694;23.314;2023-07-09T04:03:08;95567.41;;;19.61;57.24
70127;BME280;57491;42.694;23.314;2023-07-09T04:05:36;95574.66;;;19.66;57.01
70127;BME280;57491;42.694;23.314;2023-07-09T04:08:03;95586.06;;;19.78;56.70
70127;BME280;57491;42.694;23.314;2023-07-09T04:10:31;95588.84;;;19.83;56.46
70127;BME280;57491;42.694;23.314;2023-07-09T04:12:58;95591.97;;;19.91;56.34
70127;BME280;57491;42.694;23.314;2023-07-09T04:15:27;95595.09;;;20.00;55.92
70127;BME280;57491;42.694;23.314;2023-07-09T04:17:54;95597.44;;;20.08;56.04
70127;BME280;57491;42.694;23.314;2023-07-09T04:20:22;95605.97;;;20.22;56.18
70127;BME280;57491;42.694;23.314;2023-07-09T04:22:49;95601.19;;;20.30;55.60
70127;BME280;57491;42.694;23.314;2023-07-09T04:25:16;95589.16;;;20.34;55.19
70127;BME280;57491;42.694;23.314;2023-07-09T04:27:43;95606.16;;;20.50;54.67
70127;BME280;57491;42.694;23.314;2023-07-09T04:30:12;95594.69;;;20.56;53.82
70127;BME280;57491;42.694;23.314;2023-07-09T04:32:42;95602.06;;;20.66;53.99
70127;BME280;57491;42.694;23.314;2023-07-09T04:35:10;95611.81;;;20.77;53.77
70127;BME280;57491;42.694;23.314;2023-07-09T04:37:38;95611.25;;;20.86;53.47
70127;BME280;57491;42.694;23.314;2023-07-09T04:40:06;95602.06;;;21.01;52.92
70127;BME280;57491;42.694;23.314;2023-07-09T04:42:36;95610.81;;;21.13;52.55
70127;BME280;57491;42.694;23.314;2023-07-09T04:45:06;95614.34;;;21.30;52.40
70127;BME280;57491;42.694;23.314;2023-07-09T04:47:35;95611.72;;;21.42;52.55
70127;BME280;57491;42.694;23.314;2023-07-09T04:50:05;95607.66;;;21.51;51.09
70127;BME280;57491;42.694;23.314;2023-07-09T04:52:33;95603.50;;;21.55;51.19
70127;BME280;57491;42.694;23.314;2023-07-09T04:55:00;95614.25;;;21.76;51.92
70127;BME280;57491;42.694;23.314;2023-07-09T04:57:28;95603.66;;;21.88;51.11
70127;BME280;57491;42.694;23.314;2023-07-09T04:59:55;95605.78;;;22.03;50.15
70127;BME280;57491;42.694;23.314;2023-07-09T05:02:22;95610.94;;;22.09;50.19
70127;BME280;57491;42.694;23.314;2023-07-09T05:04:49;95607.28;;;22.10;50.92
70127;BME280;57491;42.694;23.314;2023-07-09T05:07:18;95605.25;;;22.17;50.46
70127;BME280;57491;42.694;23.314;2023-07-09T05:09:45;95606.16;;;22.23;50.03
70127;BME280;57491;42.694;23.314;2023-07-09T05:12:12;95615.84;;;22.46;50.18
70127;BME280;57491;42.694;23.314;2023-07-09T05:14:40;95612.78;;;22.54;49.38
70127;BME280;57491;42.694;23.314;2023-07-09T05:17:07;95619.56;;;22.78;49.54
70127;BME280;57491;42.694;23.314;2023-07-09T05:19:35;95621.56;;;23.04;48.08
70127;BME280;57491;42.694;23.314;2023-07-09T05:22:02;95618.56;;;23.18;48.12
70127;BME280;57491;42.694;23.314;2023-07-09T05:24:30;95620.63;;;23.32;48.39
70127;BME280;57491;42.694;23.314;2023-07-09T05:26:57;95630.66;;;23.47;46.89
70127;BME280;57491;42.694;23.314;2023-07-09T05:29:24;95626.72;;;23.49;46.10
70127;BME280;57491;42.694;23.314;2023-07-09T05:31:52;95629.13;;;23.34;45.76
70127;BME280;57491;42.694;23.314;2023-07-09T05:34:19;95626.78;;;23.38;46.60
70127;BME280;57491;42.694;23.314;2023-07-09T05:36:47;95618.59;;;23.39;46.97
70127;BME280;57491;42.694;23.314;2023-07-09T05:39:14;95618.03;;;23.54;45.74
70127;BME280;57491;42.694;23.314;2023-07-09T05:41:43;95607.09;;;23.50;45.88
70127;BME280;57491;42.694;23.314;2023-07-09T05:44:11;95616.78;;;23.62;45.22
70127;BME280;57491;42.694;23.314;2023-07-09T05:46:38;95611.16;;;23.80;45.17
70127;BME280;57491;42.694;23.314;2023-07-09T05:49:05;95617.41;;;23.90;45.94
70127;BME280;57491;42.694;23.314;2023-07-09T05:51:33;95618.22;;;23.91;45.96
70127;BME280;57491;42.694;23.314;2023-07-09T05:54:00;95618.69;;;23.88;44.98
70127;BME280;57491;42.694;23.314;2023-07-09T05:56:28;95603.78;;;23.87;45.32
70127;BME280;57491;42.694;23.314;2023-07-09T05:58:58;95619.41;;;24.05;45.69
70127;BME280;57491;42.694;23.314;2023-07-09T06:01:25;95611.88;;;23.97;44.94
70127;BME280;57491;42.694;23.314;2023-07-09T06:03:52;95621.22;;;23.99;44.87
70127;BME280;57491;42.694;23.314;2023-07-09T06:06:20;95623.91;;;24.05;46.13
70127;BME280;57491;42.694;23.314;2023-07-09T06:08:47;95616.84;;;24.15;46.08
70127;BME280;57491;42.694;23.314;2023-07-09T06:11:15;95614.84;;;24.22;45.96
70127;BME280;57491;42.694;23.314;2023-07-09T06:13:43;95620.75;;;24.29;44.87
70127;BME280;57491;42.694;23.314;2023-07-09T06:16:12;95611.50;;;24.37;44.95
70127;BME280;57491;42.694;23.314;2023-07-09T06:18:39;95602.03;;;24.46;45.71
70127;BME280;57491;42.694;23.314;2023-07-09T06:21:06;95609.19;;;24.45;44.92
70127;BME280;57491;42.694;23.314;2023-07-09T06:23:38;95606.88;;;24.54;45.51
70127;BME280;57491;42.694;23.314;2023-07-09T06:26:06;95609.38;;;24.66;44.44
70127;BME280;57491;42.694;23.314;2023-07-09T06:28:33;95606.22;;;24.69;42.98
70127;BME280;57491;42.694;23.314;2023-07-09T06:31:00;95607.94;;;24.85;43.83
70127;BME280;57491;42.694;23.314;2023-07-09T06:33:29;95605.03;;;24.86;42.91
70127;BME280;57491;42.694;23.314;2023-07-09T06:35:58;95598.91;;;24.86;42.14
70127;BME280;57491;42.694;23.314;2023-07-09T06:38:27;95605.13;;;24.97;41.95
70127;BME280;57491;42.694;23.314;2023-07-09T06:40:56;95593.63;;;24.91;42.50
70127;BME280;57491;42.694;23.314;2023-07-09T06:43:23;95591.63;;;25.08;43.06
70127;BME280;57491;42.694;23.314;2023-07-09T06:45:52;95597.63;;;25.30;42.00
70127;BME280;57491;42.694;23.314;2023-07-09T06:48:19;95598.97;;;25.33;42.12
70127;BME280;57491;42.694;23.314;2023-07-09T06:50:48;95596.63;;;25.42;41.49
70127;BME280;57491;42.694;23.314;2023-07-09T06:53:15;95607.41;;;25.67;41.09
70127;BME280;57491;42.694;23.314;2023-07-09T06:55:43;95590.97;;;25.80;40.82
70127;BME280;57491;42.694;23.314;2023-07-09T06:58:11;95598.47;;;25.93;41.32
70127;BME280;57491;42.694;23.314;2023-07-09T07:00:38;95602.75;;;26.09;40.41
70127;BME280;57491;42.694;23.314;2023-07-09T07:03:06;95593.94;;;26.04;40.10
70127;BME280;57491;42.694;23.314;2023-07-09T07:05:33;95599.53;;;25.97;40.07
70127;BME280;57491;42.694;23.314;2023-07-09T07:08:03;95595.31;;;26.11;40.58
70127;BME280;57491;42.694;23.314;2023-07-09T07:10:32;95583.06;;;26.15;40.14
70127;BME280;57491;42.694;23.314;2023-07-09T07:12:59;95601.50;;;26.37;39.67
70127;BME280;57491;42.694;23.314;2023-07-09T07:15:26;95601.22;;;26.39;38.57
70127;BME280;57491;42.694;23.314;2023-07-09T07:17:53;95600.16;;;26.35;37.76
70127;BME280;57491;42.694;23.314;2023-07-09T07:20:20;95585.78;;;26.46;38.36
70127;BME280;57491;42.694;23.314;2023-07-09T07:22:47;95592.19;;;26.75;39.15
70127;BME280;57491;42.694;23.314;2023-07-09T07:25:16;95590.59;;;26.69;38.82
70127;BME280;57491;42.694;23.314;2023-07-09T07:27:43;95589.25;;;26.67;37.94
70127;BME280;57491;42.694;23.314;2023-07-09T07:30:10;95580.97;;;26.58;38.09
70127;BME280;57491;42.694;23.314;2023-07-09T07:32:38;95576.16;;;26.80;37.57
70127;BME280;57491;42.694;23.314;2023-07-09T07:35:06;95580.72;;;26.70;37.77
70127;BME280;57491;42.694;23.314;2023-07-09T07:37:33;95583.13;;;26.81;37.93
70127;BME280;57491;42.694;23.314;2023-07-09T07:40:00;95575.66;;;27.03;37.42
70127;BME280;57491;42.694;23.314;2023-07-09T07:42:31;95578.28;;;27.29;37.18
70127;BME280;57491;42.694;23.314;2023-07-09T07:44:58;95576.91;;;27.36;37.51
70127;BME280;57491;42.694;23.314;2023-07-09T07:47:26;95570.22;;;27.34;36.44
70127;BME280;57491;42.694;23.314;2023-07-09T07:49:54;95574.00;;;27.23;36.30
70127;BME280;57491;42.694;23.314;2023-07-09T07:52:21;95586.28;;;27.29;37.55
70127;BME280;57491;42.694;23.314;2023-07-09T07:54:48;95584.69;;;27.13;37.11
70127;BME280;57491;42.694;23.314;2023-07-09T07:57:16;95571.34;;;27.13;37.25
70127;BME280;57491;42.694;23.314;2023-07-09T07:59:45;95582.75;;;27.48;35.56
70127;BME280;57491;42.694;23.314;2023-07-09T08:02:13;95580.84;;;27.64;36.76
70127;BME280;57491;42.694;23.314;2023-07-09T08:04:41;95577.00;;;27.85;35.60
70127;BME280;57491;42.694;23.314;2023-07-09T08:07:08;95576.66;;;28.02;36.02
70127;BME280;57491;42.694;23.314;2023-07-09T08:09:36;95573.66;;;28.19;36.21
70127;BME280;57491;42.694;23.314;2023-07-09T08:12:05;95573.47;;;28.44;35.07
70127;BME280;57491;42.694;23.314;2023-07-09T08:14:37;95561.66;;;28.50;33.26
70127;BME280;57491;42.694;23.314;2023-07-09T08:17:06;95562.66;;;28.59;34.70
70127;BME280;57491;42.694;23.314;2023-07-09T08:19:43;95559.06;;;28.69;34.94
70127;BME280;57491;42.694;23.314;2023-07-09T08:22:10;95565.38;;;28.54;35.27
70127;BME280;57491;42.694;23.314;2023-07-09T08:24:38;95565.38;;;28.54;35.45
70127;BME280;57491;42.694;23.314;2023-07-09T08:27:06;95555.66;;;28.63;34.44
70127;BME280;57491;42.694;23.314;2023-07-09T08:29:33;95554.28;;;28.71;34.35
70127;BME280;57491;42.694;23.314;2023-07-09T08:32:01;95549.09;;;28.85;34.59
70127;BME280;57491;42.694;23.314;2023-07-09T08:34:29;95556.25;;;29.18;34.70
70127;BME280;57491;42.694;23.314;2023-07-09T08:36:57;95558.47;;;29.11;34.18
70127;BME280;57491;42.694;23.314;2023-07-09T08:39:24;95551.31;;;29.30;34.75
70127;BME280;57491;42.694;23.314;2023-07-09T08:41:54;95553.69;;;29.32;33.74
70127;BME280;57491;42.694;23.314;2023-07-09T08:44:42;95556.50;;;29.45;34.18
70127;BME280;57491;42.694;23.314;2023-07-09T08:47:17;95556.25;;;29.65;32.92
70127;BME280;57491;42.694;23.314;2023-07-09T08:49:54;95556.75;;;29.67;33.79
70127;BME280;57491;42.694;23.314;2023-07-09T08:52:26;95550.00;;;29.51;33.44
70127;BME280;57491;42.694;23.314;2023-07-09T08:54:56;95550.63;;;29.43;33.24
70127;BME280;57491;42.694;23.314;2023-07-09T08:57:27;95564.09;;;29.38;34.03
70127;BME280;57491;42.694;23.314;2023-07-09T09:00:01;95548.59;;;29.35;34.08
70127;BME280;57491;42.694;23.314;2023-07-09T09:02:36;95547.53;;;29.55;34.49
70127;BME280;57491;42.694;23.314;2023-07-09T09:05:07;95555.75;;;29.63;33.14
70127;BME280;57491;42.694;23.314;2023-07-09T09:07:40;95552.88;;;29.79;33.53
70127;BME280;57491;42.694;23.314;2023-07-09T09:10:12;95554.91;;;29.87;32.81
70127;BME280;57491;42.694;23.314;2023-07-09T09:12:44;95559.09;;;29.74;33.09
70127;BME280;57491;42.694;23.314;2023-07-09T09:15:17;95560.34;;;29.82;31.72
70127;BME280;57491;42.694;23.314;2023-07-09T09:17:50;95549.53;;;30.10;32.39
70127;BME280;57491;42.694;23.314;2023-07-09T09:20:21;95555.97;;;30.28;32.67
70127;BME280;57491;42.694;23.314;2023-07-09T09:22:51;95555.97;;;30.28;31.57
70127;BME280;57491;42.694;23.314;2023-07-09T09:25:23;95550.75;;;30.18;31.78
70127;BME280;57491;42.694;23.314;2023-07-09T09:27:53;95550.75;;;30.18;31.47
70127;BME280;57491;42.694;23.314;2023-07-09T09:30:22;95538.53;;;30.44;32.57
70127;BME280;57491;42.694;23.314;2023-07-09T09:32:53;95550.38;;;30.43;31.42
70127;BME280;57491;42.694;23.314;2023-07-09T09:35:28;95548.19;;;30.64;31.90
70127;BME280;57491;42.694;23.314;2023-07-09T09:37:57;95544.53;;;30.74;31.47
70127;BME280;57491;42.694;23.314;2023-07-09T09:40:26;95545.53;;;30.78;31.67
70127;BME280;57491;42.694;23.314;2023-07-09T09:42:56;95541.72;;;30.97;30.43
70127;BME280;57491;42.694;23.314;2023-07-09T09:45:28;95546.78;;;30.99;30.32
70127;BME280;57491;42.694;23.314;2023-07-09T09:48:00;95538.47;;;31.00;30.58
70127;BME280;57491;42.694;23.314;2023-07-09T09:50:32;95539.56;;;31.27;31.25
70127;BME280;57491;42.694;23.314;2023-07-09T09:52:59;95533.22;;;31.36;29.83
70127;BME280;57491;42.694;23.314;2023-07-09T09:55:29;95529.91;;;31.53;29.39
70127;BME280;57491;42.694;23.314;2023-07-09T09:57:58;95535.28;;;31.53;29.69
70127;BME280;57491;42.694;23.314;2023-07-09T10:00:27;95535.28;;;31.94;29.59
70127;BME280;57491;42.694;23.314;2023-07-09T10:02:58;95532.41;;;32.26;29.19
70127;BME280;57491;42.694;23.314;2023-07-09T10:05:33;95523.72;;;32.52;28.35
70127;BME280;57491;42.694;23.314;2023-07-09T10:08:08;95535.66;;;32.73;27.84
70127;BME280;57491;42.694;23.314;2023-07-09T10:10:36;95531.28;;;32.86;27.14
70127;BME280;57491;42.694;23.314;2023-07-09T10:13:12;95529.88;;;32.66;26.50
70127;BME280;57491;42.694;23.314;2023-07-09T10:15:48;95522.53;;;32.36;27.48
70127;BME280;57491;42.694;23.314;2023-07-09T10:18:29;95515.81;;;32.69;28.01
70127;BME280;57491;42.694;23.314;2023-07-09T10:21:06;95507.88;;;32.95;28.25
70127;BME280;57491;42.694;23.314;2023-07-09T10:23:39;95520.03;;;33.14;26.36
70127;BME280;57491;42.694;23.314;2023-07-09T10:26:13;95521.19;;;33.22;26.93
70127;BME280;57491;42.694;23.314;2023-07-09T10:28:59;95512.66;;;33.06;26.11
70127;BME280;57491;42.694;23.314;2023-07-09T10:31:36;95523.81;;;33.13;26.68
70127;BME280;57491;42.694;23.314;2023-07-09T10:34:16;95511.03;;;32.66;26.04
70127;BME280;57491;42.694;23.314;2023-07-09T10:37:07;95514.19;;;32.90;27.12
70127;BME280;57491;42.694;23.314;2023-07-09T10:39:38;95514.28;;;33.07;26.23
70127;BME280;57491;42.694;23.314;2023-07-09T10:42:13;95510.78;;;33.07;25.63
70127;BME280;57491;42.694;23.314;2023-07-09T10:44:47;95509.25;;;33.14;26.42
70127;BME280;57491;42.694;23.314;2023-07-09T10:47:25;95509.22;;;32.84;25.62
70127;BME280;57491;42.694;23.314;2023-07-09T10:49:54;95500.00;;;32.76;26.19
70127;BME280;57491;42.694;23.314;2023-07-09T10:52:28;95504.91;;;32.74;26.09
70127;BME280;57491;42.694;23.314;2023-07-09T10:55:00;95495.63;;;32.89;26.16
70127;BME280;57491;42.694;23.314;2023-07-09T10:57:34;95498.19;;;32.63;26.78
70127;BME280;57491;42.694;23.314;2023-07-09T11:00:07;95496.97;;;32.69;26.67
70127;BME280;57491;42.694;23.314;2023-07-09T11:02:36;95496.97;;;32.69;27.16
70127;BME280;57491;42.694;23.314;2023-07-09T11:05:06;95508.59;;;32.78;26.26
70127;BME280;57491;42.694;23.314;2023-07-09T11:07:39;95502.16;;;32.96;25.80
70127;BME280;57491;42.694;23.314;2023-07-09T11:10:17;95497.44;;;32.71;26.24
70127;BME280;57491;42.694;23.314;2023-07-09T11:12:54;95499.63;;;32.24;26.50
70127;BME280;57491;42.694;23.314;2023-07-09T11:15:29;95492.84;;;31.91;26.16
70127;BME280;57491;42.694;23.314;2023-07-09T11:17:58;95497.84;;;31.84;27.25
70127;BME280;57491;42.694;23.314;2023-07-09T11:20:35;95500.88;;;32.05;27.11
70127;BME280;57491;42.694;23.314;2023-07-09T11:23:05;95496.88;;;32.16;26.41
70127;BME280;57491;42.694;23.314;2023-07-09T11:25:42;95493.28;;;32.20;25.75
70127;BME280;57491;42.694;23.314;2023-07-09T11:28:09;95495.44;;;32.32;26.70
70127;BME280;57491;42.694;23.314;2023-07-09T11:30:45;95502.09;;;32.35;26.09
70127;BME280;57491;42.694;23.314;2023-07-09T11:33:16;95490.00;;;32.68;27.27
70127;BME280;57491;42.694;23.314;2023-07-09T11:35:46;95491.88;;;32.98;25.89
70127;BME280;57491;42.694;23.314;2023-07-09T11:38:18;95489.50;;;32.97;25.65
70127;BME280;57491;42.694;23.314;2023-07-09T11:40:47;95484.69;;;32.85;25.84
70127;BME280;57491;42.694;23.314;2023-07-09T11:43:27;95482.03;;;32.41;26.85
70127;BME280;57491;42.694;23.314;2023-07-09T11:45:56;95487.78;;;32.25;27.02
70127;BME280;57491;42.694;23.314;2023-07-09T11:48:26;95482.50;;;32.43;27.36
70127;BME280;57491;42.694;23.314;2023-07-09T11:50:55;95481.41;;;32.66;26.77
70127;BME280;57491;42.694;23.314;2023-07-09T11:53:31;95474.50;;;33.04;28.33
70127;BME280;57491;42.694;23.314;2023-07-09T11:56:02;95473.66;;;33.35;27.39
70127;BME280;57491;42.694;23.314;2023-07-09T11:58:29;95468.75;;;33.37;26.30
70127;BME280;57491;42.694;23.314;2023-07-09T12:00:57;95458.28;;;33.27;25.39
70127;BME280;57491;42.694;23.314;2023-07-09T12:03:28;95463.66;;;33.27;26.36
70127;BME280;57491;42.694;23.314;2023-07-09T12:06:00;95463.38;;;33.06;26.68
70127;BME280;57491;42.694;23.314;2023-07-09T12:08:34;95455.56;;;32.87;26.66
70127;BME280;57491;42.694;23.314;2023-07-09T12:11:01;95467.88;;;32.80;26.60
70127;BME280;57491;42.694;23.314;2023-07-09T12:13:28;95464.22;;;32.75;26.85
70127;BME280;57491;42.694;23.314;2023-07-09T12:15:55;95469.44;;;32.27;27.26
70127;BME280;57491;42.694;23.314;2023-07-09T12:18:23;95475.47;;;32.11;28.54
70127;BME280;57491;42.694;23.314;2023-07-09T12:20:52;95467.72;;;32.09;28.91
70127;BME280;57491;42.694;23.314;2023-07-09T12:23:22;95459.97;;;31.94;28.27
70127;BME280;57491;42.694;23.314;2023-07-09T12:25:52;95461.03;;;31.71;28.22
70127;BME280;57491;42.694;23.314;2023-07-09T12:28:21;95456.38;;;31.63;28.93
70127;BME280;57491;42.694;23.314;2023-07-09T12:30:51;95459.16;;;31.58;29.92
70127;BME280;57491;42.694;23.314;2023-07-09T12:33:20;95467.31;;;31.39;29.11
70127;BME280;57491;42.694;23.314;2023-07-09T12:35:51;95455.31;;;31.09;29.51
70127;BME280;57491;42.694;23.314;2023-07-09T12:38:21;95457.84;;;30.87;29.40
70127;BME280;57491;42.694;23.314;2023-07-09T12:40:48;95449.28;;;30.71;29.58
70127;BME280;57491;42.694;23.314;2023-07-09T12:43:23;95430.72;;;30.42;29.60
70127;BME280;57491;42.694;23.314;2023-07-09T12:45:51;95447.25;;;30.49;30.17
70127;BME280;57491;42.694;23.314;2023-07-09T12:48:26;95451.56;;;30.32;30.30
70127;BME280;57491;42.694;23.314;2023-07-09T12:50:55;95448.47;;;30.25;30.30
70127;BME280;57491;42.694;23.314;2023-07-09T12:53:24;95433.66;;;30.27;30.58
70127;BME280;57491;42.694;23.314;2023-07-09T12:55:55;95440.81;;;30.32;31.45
70127;BME280;57491;42.694;23.314;2023-07-09T12:58:27;95437.94;;;30.28;30.26
70127;BME280;57491;42.694;23.314;2023-07-09T13:00:56;95434.91;;;30.35;31.12
70127;BME280;57491;42.694;23.314;2023-07-09T13:03:26;95442.78;;;30.12;31.36